Seahope II — 9HA2233 — position and weather

sailwx.info

Track history (hours):
 
Tides and Currents Weather Stations Pressure Air Temp Water Temp Dewpoint Dewpoint Depression Visibility Wind Speed Wind Dir Waves Ship Positions

Seahope II

Last reported at 2014-Nov-30 05:33 UTC. Time now 2014-Dec-22 16:16 UTC.
Position N 46°40' E 031°56'.
Warning: this ship's position is 22 days out of date.

Length 190 m; draft 6 m.

Type: Cargo ship. MMSI: 248185000.

Date/timePositionNaut miles runAvg speedWind from/ knotsBaromVisibWave heightAir tempDewpointWater temp
2014-Nov-30 05:33N 46°40' E 031°56'7 6.7
2014-Nov-30 04:33N 46°46' E 031°57'0 0.1
2014-Nov-30 03:33N 46°46' E 031°57'0 0.0
2014-Nov-30 02:33N 46°46' E 031°57'0 0.0
2014-Nov-30 01:33N 46°46' E 031°57'0 0.0
2014-Nov-30 00:33N 46°46' E 031°57'0 0.0
2014-Nov-29 23:33N 46°46' E 031°57'0 0.0
2014-Nov-29 22:33N 46°46' E 031°57'0 0.0
2014-Nov-29 21:33N 46°46' E 031°57'0 0.0
2014-Nov-29 20:33N 46°46' E 031°57'0 0.0
2014-Nov-29 19:33N 46°46' E 031°57'0 0.0
2014-Nov-29 18:30N 46°46' E 031°57'0 0.0
2014-Nov-29 17:33N 46°46' E 031°57'0 0.0
2014-Nov-29 16:33N 46°46' E 031°57'0 0.0
2014-Nov-29 15:33N 46°46' E 031°57'0 0.0
2014-Nov-29 14:33N 46°46' E 031°57'0 0.0
2014-Nov-29 13:30N 46°46' E 031°57'0 0.0
2014-Nov-29 12:33N 46°46' E 031°57'0 0.0
2014-Nov-29 11:33N 46°46' E 031°57'0 0.0
2014-Nov-29 10:32N 46°46' E 031°57'0 0.0
2014-Nov-29 09:32N 46°46' E 031°57'0 0.0
2014-Nov-29 08:32N 46°46' E 031°57'0 0.0
2014-Nov-29 07:32N 46°46' E 031°57'0 0.0
2014-Nov-29 06:32N 46°46' E 031°57'0 0.0
2014-Nov-29 05:32N 46°46' E 031°57'0 0.0
2014-Nov-29 04:32N 46°46' E 031°57'0 0.0
2014-Nov-29 03:32N 46°46' E 031°57'0 0.0
2014-Nov-29 02:32N 46°46' E 031°57'0 0.0
2014-Nov-29 01:32N 46°46' E 031°57'0 0.0
2014-Nov-29 00:32N 46°46' E 031°57'0 0.0
2014-Nov-28 23:32N 46°46' E 031°57'0 0.0
2014-Nov-28 22:29N 46°46' E 031°57'0 0.0
2014-Nov-28 21:32N 46°46' E 031°57'0 0.0
2014-Nov-28 20:23N 46°46' E 031°57'0 0.0
2014-Nov-28 19:29N 46°46' E 031°57'0 0.0
2014-Nov-28 18:29N 46°46' E 031°57'0 0.0
2014-Nov-28 17:32N 46°46' E 031°57'0 0.0
2014-Nov-28 16:32N 46°46' E 031°57'0 0.0
2014-Nov-28 04:29N 46°46' E 031°57'0 0.0
2014-Nov-28 03:32N 46°46' E 031°57'0 0.0
2014-Nov-28 02:32N 46°46' E 031°57'0 0.0
2014-Nov-28 01:14N 46°46' E 031°57'0 0.0
2014-Nov-28 00:33N 46°46' E 031°57'2 2.4
2014-Nov-27 23:32N 46°44' E 031°56'7 6.7
2014-Nov-27 22:33N 46°38' E 031°54'364 9.7
2014-Nov-26 09:14N 40°57' E 028°56'0 0.0
2014-Nov-25 23:32N 40°58' E 028°56'6 5.8
2014-Nov-25 22:33N 40°52' E 028°53'29410.5
2014-Nov-24 18:27N 37°36' E 024°11'  
2014-Nov-22 12:33N 36°53' E 012°30'17211.9
2014-Nov-21 22:10N 37°23' E 008°58'1113.2
2014-Nov-21 21:18N 37°20' E 008°44'2513.9
2014-Nov-21 19:30N 37°18' E 008°12'1514.7
2014-Nov-21 18:28N 37°16' E 007°54'1111.7
2014-Nov-21 17:31N 37°15' E 007°40'1512.9
2014-Nov-21 16:21N 37°15' E 007°21'34713.9
2014-Nov-20 15:17N 36°40' E 000°08'1013.1
2014-Nov-20 14:29N 36°39' W 000°05'  
Track history (hours):
 
Tides and Currents Weather Stations Pressure Air Temp Water Temp Dewpoint Dewpoint Depression Visibility Wind Speed Wind Dir Waves Ship Positions

Seahope II

Last reported at 2014-Nov-30 05:33 UTC. Time now 2014-Dec-22 16:16 UTC.
Position N 46°40' E 031°56'.
Warning: this ship's position is 22 days out of date.

Length 190 m; draft 6 m.

Type: Cargo ship. MMSI: 248185000.

Date/timePositionNaut miles runAvg speedWind from/ knotsBaromVisibWave heightAir tempDewpointWater temp
2014-Nov-30 05:33N 46°40' E 031°56'7 6.7
2014-Nov-30 04:33N 46°46' E 031°57'0 0.1
2014-Nov-30 03:33N 46°46' E 031°57'0 0.0
2014-Nov-30 02:33N 46°46' E 031°57'0 0.0
2014-Nov-30 01:33N 46°46' E 031°57'0 0.0
2014-Nov-30 00:33N 46°46' E 031°57'0 0.0
2014-Nov-29 23:33N 46°46' E 031°57'0 0.0
2014-Nov-29 22:33N 46°46' E 031°57'0 0.0
2014-Nov-29 21:33N 46°46' E 031°57'0 0.0
2014-Nov-29 20:33N 46°46' E 031°57'0 0.0
2014-Nov-29 19:33N 46°46' E 031°57'0 0.0
2014-Nov-29 18:30N 46°46' E 031°57'0 0.0
2014-Nov-29 17:33N 46°46' E 031°57'0 0.0
2014-Nov-29 16:33N 46°46' E 031°57'0 0.0
2014-Nov-29 15:33N 46°46' E 031°57'0 0.0
2014-Nov-29 14:33N 46°46' E 031°57'0 0.0
2014-Nov-29 13:30N 46°46' E 031°57'0 0.0
2014-Nov-29 12:33N 46°46' E 031°57'0 0.0
2014-Nov-29 11:33N 46°46' E 031°57'0 0.0
2014-Nov-29 10:32N 46°46' E 031°57'0 0.0
2014-Nov-29 09:32N 46°46' E 031°57'0 0.0
2014-Nov-29 08:32N 46°46' E 031°57'0 0.0
2014-Nov-29 07:32N 46°46' E 031°57'0 0.0
2014-Nov-29 06:32N 46°46' E 031°57'0 0.0
2014-Nov-29 05:32N 46°46' E 031°57'0 0.0
2014-Nov-29 04:32N 46°46' E 031°57'0 0.0
2014-Nov-29 03:32N 46°46' E 031°57'0 0.0
2014-Nov-29 02:32N 46°46' E 031°57'0 0.0
2014-Nov-29 01:32N 46°46' E 031°57'0 0.0
2014-Nov-29 00:32N 46°46' E 031°57'0 0.0
2014-Nov-28 23:32N 46°46' E 031°57'0 0.0
2014-Nov-28 22:29N 46°46' E 031°57'0 0.0
2014-Nov-28 21:32N 46°46' E 031°57'0 0.0
2014-Nov-28 20:23N 46°46' E 031°57'0 0.0
2014-Nov-28 19:29N 46°46' E 031°57'0 0.0
2014-Nov-28 18:29N 46°46' E 031°57'0 0.0
2014-Nov-28 17:32N 46°46' E 031°57'0 0.0
2014-Nov-28 16:32N 46°46' E 031°57'0 0.0
2014-Nov-28 04:29N 46°46' E 031°57'0 0.0
2014-Nov-28 03:32N 46°46' E 031°57'0 0.0
2014-Nov-28 02:32N 46°46' E 031°57'0 0.0
2014-Nov-28 01:14N 46°46' E 031°57'0 0.0
2014-Nov-28 00:33N 46°46' E 031°57'2 2.4
2014-Nov-27 23:32N 46°44' E 031°56'7 6.7
2014-Nov-27 22:33N 46°38' E 031°54'364 9.7
2014-Nov-26 09:14N 40°57' E 028°56'0 0.0
2014-Nov-25 23:32N 40°58' E 028°56'6 5.8
2014-Nov-25 22:33N 40°52' E 028°53'29410.5
2014-Nov-24 18:27N 37°36' E 024°11'  
2014-Nov-22 12:33N 36°53' E 012°30'17211.9
2014-Nov-21 22:10N 37°23' E 008°58'1113.2
2014-Nov-21 21:18N 37°20' E 008°44'2513.9
2014-Nov-21 19:30N 37°18' E 008°12'1514.7
2014-Nov-21 18:28N 37°16' E 007°54'1111.7
2014-Nov-21 17:31N 37°15' E 007°40'1512.9
2014-Nov-21 16:21N 37°15' E 007°21'34713.9
2014-Nov-20 15:17N 36°40' E 000°08'1013.1
2014-Nov-20 14:29N 36°39' W 000°05'  

Dump ship's entire track history